Time;durP1;ratioP1;P1;durP2;ratioP2;P2;SDS_P1;SDS_P2;PMS_P1;PMS_P2;Temp;Humidity;BMP_temperature;BMP_pressure;BME280_temperature;BME280_humidity;BME280_pressure;Samples;Min_cycle;Max_cycle;Signal;HPM_P1;HPM_P2
2022/05/02 04:22:37;;;;;;;35.15;18.85;;;;;;;5.81;100.00;100371.00;5108991;27;20166;-75
2022/05/02 04:25:03;;;;;;;33.83;16.95;;;;;;;5.72;100.00;100367.38;5108972;28;20042;-75
2022/05/02 04:27:29;;;;;;;31.75;18.65;;;;;;;5.80;100.00;100377.25;5108935;28;20062;-75
2022/05/02 04:29:54;;;;;;;32.78;19.60;;;;;;;5.85;100.00;100377.66;5109061;28;20027;-75
2022/05/02 04:32:20;;;;;;;29.58;17.15;;;;;;;5.83;100.00;100373.50;5108561;28;20388;-75
2022/05/02 04:34:46;;;;;;;32.47;17.45;;;;;;;5.86;100.00;100376.69;5132514;22;20051;-74
2022/05/02 04:37:11;;;;;;;31.38;17.27;;;;;;;5.86;100.00;100370.56;5109113;28;20388;-76
2022/05/02 04:39:37;;;;;;;29.20;17.75;;;;;;;5.92;100.00;100375.31;5107920;28;20058;-74
2022/05/02 04:42:03;;;;;;;26.60;15.98;;;;;;;5.93;100.00;100379.63;5107448;28;20046;-74
2022/05/02 04:44:29;;;;;;;27.20;15.68;;;;;;;5.93;100.00;100375.22;5108866;28;20100;-76
2022/05/02 04:46:54;;;;;;;23.70;15.25;;;;;;;5.94;100.00;100382.16;5108918;28;20036;-76
2022/05/02 04:49:20;;;;;;;22.52;14.25;;;;;;;5.84;100.00;100388.38;5107582;28;20085;-76
2022/05/02 04:51:45;;;;;;;23.88;14.13;;;;;;;5.83;100.00;100382.25;5107180;28;20028;-77
2022/05/02 04:54:11;;;;;;;22.40;13.73;;;;;;;5.81;100.00;100378.94;5108595;28;20452;-74
2022/05/02 04:56:37;;;;;;;24.50;14.18;;;;;;;5.91;100.00;100385.06;5107315;28;20101;-74
2022/05/02 04:59:02;;;;;;;23.15;13.95;;;;;;;5.90;100.00;100386.03;5107242;28;20123;-74
2022/05/02 05:01:28;;;;;;;23.58;14.02;;;;;;;5.99;100.00;100389.66;5108252;28;20028;-75
2022/05/02 05:03:53;;;;;;;18.52;12.43;;;;;;;6.01;100.00;100385.09;5108385;28;20435;-74
2022/05/02 05:06:19;;;;;;;23.20;13.05;;;;;;;6.05;100.00;100397.03;5108527;28;20535;-74
2022/05/02 05:08:44;;;;;;;21.15;13.10;;;;;;;6.11;100.00;100396.47;5108595;28;20081;-74
2022/05/02 05:11:20;;;;;;;20.40;13.32;;;;;;;6.17;100.00;100395.06;5108384;28;20036;-76
2022/05/02 05:16:20;;;;;;;17.98;12.55;;;;;;;6.19;100.00;100399.28;5107096;28;20035;-76
2022/05/02 05:16:40;;;;;;;21.40;14.18;;;;;;;6.29;100.00;100395.75;5106749;28;20039;-73
2022/05/02 05:19:17;;;;;;;21.65;13.77;;;;;;;6.37;100.00;100385.28;5108553;28;20040;-76
2022/05/02 05:21:55;;;;;;;18.65;12.40;;;;;;;6.45;100.00;100390.69;5108021;28;20110;-76
2022/05/02 05:24:20;;;;;;;20.92;13.50;;;;;;;6.53;100.00;100391.66;5108264;28;20114;-74
2022/05/02 05:27:06;;;;;;;21.25;13.77;;;;;;;6.59;100.00;100384.97;5107869;28;20433;-74
2022/05/02 05:29:31;;;;;;;22.42;14.75;;;;;;;6.73;100.00;100386.31;5108349;28;20035;-74
2022/05/02 05:32:05;;;;;;;26.48;16.70;;;;;;;6.80;100.00;100382.94;5105772;28;20107;-74
2022/05/02 05:34:55;;;;;;;26.38;16.65;;;;;;;6.91;100.00;100387.22;5094292;28;20036;-74
2022/05/02 05:37:27;;;;;;;30.17;16.88;;;;;;;7.01;100.00;100390.66;5093029;28;20557;-75
2022/05/02 05:40:25;;;;;;;27.45;16.50;;;;;;;7.13;100.00;100386.00;5094539;28;20402;-74
2022/05/02 05:43:28;;;;;;;26.58;15.75;;;;;;;7.28;100.00;100392.44;5089902;28;20111;-74
2022/05/02 05:46:09;;;;;;;28.65;15.77;;;;;;;7.41;100.00;100391.25;5094198;28;20032;-74
2022/05/02 05:49:10;;;;;;;22.33;15.68;;;;;;;7.52;100.00;100391.06;5094312;28;20028;-73
2022/05/02 05:51:50;;;;;;;26.20;16.17;;;;;;;7.68;100.00;100391.22;5089435;28;20161;-74
2022/05/02 05:54:37;;;;;;;20.77;14.55;;;;;;;7.77;100.00;100400.09;5081325;28;20035;-72
2022/05/02 05:57:16;;;;;;;25.20;16.40;;;;;;;7.87;100.00;100391.06;5092562;28;20030;-74
2022/05/02 05:59:53;;;;;;;25.02;15.85;;;;;;;7.99;100.00;100385.53;5092336;28;20052;-73
2022/05/02 06:02:27;;;;;;;23.35;16.27;;;;;;;8.10;100.00;100390.59;5093532;28;20032;-76
2022/05/02 06:04:58;;;;;;;23.73;16.27;;;;;;;8.24;100.00;100378.59;5093830;28;20036;-74
2022/05/02 06:07:27;;;;;;;27.92;17.13;;;;;;;8.34;100.00;100376.66;5093848;28;20139;-74
2022/05/02 06:09:56;;;;;;;28.52;19.00;;;;;;;8.48;100.00;100376.16;5093655;28;20039;-76
2022/05/02 06:12:22;;;;;;;38.00;22.30;;;;;;;8.64;100.00;100378.06;5092027;28;20047;-73
2022/05/02 06:20:24;;;;;;;34.20;22.52;;;;;;;9.07;100.00;100379.75;5093507;28;20082;-70
2022/05/02 06:22:50;;;;;;;36.15;22.17;;;;;;;9.18;100.00;100371.47;5093274;28;20092;-70
2022/05/02 06:25:18;;;;;;;33.72;22.17;;;;;;;9.24;100.00;100380.63;5093178;28;20032;-69
2022/05/02 06:27:46;;;;;;;35.13;21.77;;;;;;;9.31;100.00;100376.34;5093541;28;20042;-71
2022/05/02 06:30:13;;;;;;;34.28;22.25;;;;;;;9.42;100.00;100383.19;5093443;28;20040;-70
2022/05/02 06:32:43;;;;;;;35.22;20.75;;;;;;;9.51;100.00;100374.22;5093053;28;20035;-72
2022/05/02 06:35:09;;;;;;;33.90;21.67;;;;;;;9.60;100.00;100378.59;5092009;28;20064;-72
2022/05/02 06:37:48;;;;;;;29.90;21.10;;;;;;;9.71;100.00;100372.94;5093238;28;20125;-72
2022/05/02 06:40:55;;;;;;;27.95;18.92;;;;;;;9.80;100.00;100376.44;5093194;28;20182;-72
2022/05/02 06:43:52;;;;;;;27.98;18.98;;;;;;;9.91;100.00;100376.13;5055053;28;20045;-72
2022/05/02 06:46:20;;;;;;;25.20;18.02;;;;;;;9.97;100.00;100383.41;5092882;28;20036;-71
2022/05/02 06:48:54;;;;;;;27.27;18.73;;;;;;;10.09;99.83;100388.41;5092998;28;20046;-71
2022/05/02 06:51:38;;;;;;;30.60;20.02;;;;;;;10.13;99.14;100377.28;5092968;28;20123;-72
2022/05/02 06:54:09;;;;;;;24.05;18.27;;;;;;;10.21;98.86;100373.78;5092774;28;20036;-72
2022/05/02 06:56:43;;;;;;;29.40;19.33;;;;;;;10.30;98.58;100370.13;5074666;28;20075;-72
2022/05/02 06:59:18;;;;;;;25.55;18.80;;;;;;;10.40;97.43;100376.13;5092921;28;20067;-72
2022/05/02 07:02:08;;;;;;;27.65;18.67;;;;;;;10.43;97.26;100378.47;5091216;28;20036;-72
2022/05/02 07:04:44;;;;;;;30.85;18.60;;;;;;;10.53;96.82;100380.94;5092256;28;20146;-71
2022/05/02 07:07:20;;;;;;;29.45;18.70;;;;;;;10.62;97.60;100376.41;5092506;28;20051;-72
2022/05/02 07:09:52;;;;;;;30.85;19.80;;;;;;;10.71;97.85;100378.88;5092608;28;20032;-72
2022/05/02 07:12:25;;;;;;;29.83;18.98;;;;;;;10.78;96.90;100376.38;5092298;28;20119;-72
2022/05/02 07:15:12;;;;;;;29.50;19.27;;;;;;;10.92;96.91;100377.50;5091293;28;20146;-71
2022/05/02 07:18:05;;;;;;;27.90;19.00;;;;;;;10.98;96.04;100374.13;5092462;28;20064;-72
2022/05/02 07:20:49;;;;;;;27.85;19.00;;;;;;;11.11;94.82;100377.09;5092457;28;20024;-71
2022/05/02 07:23:33;;;;;;;26.55;18.23;;;;;;;11.21;93.59;100376.84;5092080;28;20050;-72
2022/05/02 07:26:13;;;;;;;28.27;18.23;;;;;;;11.22;93.76;100381.22;5092291;28;20504;-72
2022/05/02 07:28:47;;;;;;;27.40;18.67;;;;;;;11.39;92.70;100377.44;5092519;28;20098;-72
2022/05/02 07:31:23;;;;;;;22.95;16.80;;;;;;;11.49;93.05;100378.06;5090882;28;20507;-72
2022/05/02 07:33:51;;;;;;;23.92;16.63;;;;;;;11.66;91.41;100376.09;5091052;28;20063;-71
2022/05/02 07:36:19;;;;;;;24.92;17.48;;;;;;;11.71;90.42;100375.56;5092183;28;20500;-72
2022/05/02 07:39:08;;;;;;;26.33;17.23;;;;;;;11.77;90.29;100382.88;5092132;28;20468;-71
2022/05/02 07:41:35;;;;;;;22.60;16.98;;;;;;;11.76;90.28;100376.72;5092162;28;20404;-71
2022/05/02 07:44:08;;;;;;;24.67;16.60;;;;;;;11.80;89.91;100371.81;5091974;28;20115;-72
2022/05/02 07:46:41;;;;;;;23.55;16.67;;;;;;;11.87;89.71;100375.50;5091982;28;20153;-72
2022/05/02 07:49:08;;;;;;;22.30;16.30;;;;;;;11.97;89.29;100375.25;5091978;28;20028;-72
2022/05/02 07:51:40;;;;;;;24.90;17.33;;;;;;;12.02;89.39;100380.88;5091573;28;20030;-72
2022/05/02 07:54:07;;;;;;;21.52;16.55;;;;;;;12.12;88.28;100376.13;5091862;28;20059;-73
2022/05/02 07:56:35;;;;;;;23.02;16.67;;;;;;;12.22;88.68;100379.38;5091696;28;20096;-72
2022/05/02 07:59:02;;;;;;;;;;;;;;;12.10;88.05;100378.16;5092534;28;20469;-71
2022/05/02 08:01:27;;;;;;;23.90;15.80;;;;;;;12.31;87.61;100372.94;5091731;28;19916;-71
2022/05/02 08:03:53;;;;;;;19.70;15.23;;;;;;;12.11;87.61;100363.78;5091689;28;20054;-71
2022/05/02 08:06:46;;;;;;;21.67;15.13;;;;;;;12.38;87.28;100373.88;5090573;28;20040;-71
2022/05/02 08:09:31;;;;;;;22.42;15.63;;;;;;;12.72;85.96;100378.72;5091695;28;20119;-71
2022/05/02 08:12:02;;;;;;;22.38;16.20;;;;;;;12.79;85.82;100377.97;5091599;28;20449;-71
2022/05/02 08:14:55;;;;;;;21.80;16.25;;;;;;;12.81;85.50;100374.09;5091579;28;20435;-72
2022/05/02 08:17:42;;;;;;;20.95;15.43;;;;;;;12.99;84.09;100373.72;5091792;28;20032;-72
2022/05/02 08:20:46;;;;;;;20.83;15.27;;;;;;;12.99;84.08;100373.72;5091646;28;20507;-72
2022/05/02 08:29:40;;;;;;;17.52;15.10;;;;;;;13.39;82.18;100382.28;5091696;28;20036;-72
2022/05/02 08:32:22;;;;;;;18.95;15.32;;;;;;;13.56;81.16;100381.00;5091220;28;20036;-72
2022/05/02 08:35:03;;;;;;;19.20;14.35;;;;;;;13.69;81.23;100370.47;5091374;28;20038;-72
2022/05/02 08:37:42;;;;;;;20.00;14.63;;;;;;;13.86;80.70;100381.75;5091575;28;20039;-72
2022/05/02 08:40:18;;;;;;;20.05;15.27;;;;;;;13.90;80.47;100379.53;5090341;28;20090;-71
2022/05/02 08:42:50;;;;;;;20.85;14.82;;;;;;;14.12;78.71;100370.44;5090065;28;20123;-73
2022/05/02 08:45:35;;;;;;;17.85;14.48;;;;;;;14.23;78.46;100361.06;5091376;28;20445;-72
2022/05/02 08:48:19;;;;;;;18.77;14.52;;;;;;;14.44;77.82;100368.22;5091526;28;20039;-72
2022/05/02 08:51:19;;;;;;;18.25;14.35;;;;;;;14.53;76.41;100369.75;5091444;28;20036;-72
2022/05/02 08:53:56;;;;;;;19.98;13.00;;;;;;;14.34;76.75;100369.41;5091221;28;20040;-73
2022/05/02 08:56:34;;;;;;;19.63;13.98;;;;;;;14.12;77.78;100368.59;5091233;28;20032;-72
2022/05/02 08:59:17;;;;;;;;;;;;;;;14.30;77.13;100368.13;5091867;28;20472;-71
2022/05/02 09:02:20;;;;;;;17.15;12.68;;;;;;;14.42;77.35;100367.59;5091076;28;19916;-71
2022/05/02 09:05:04;;;;;;;20.05;13.82;;;;;;;14.49;75.88;100358.59;5091329;28;20040;-72
2022/05/02 09:07:56;;;;;;;19.75;12.20;;;;;;;14.46;75.63;100360.81;5091732;28;20512;-71
2022/05/02 09:10:33;;;;;;;16.58;12.98;;;;;;;14.33;75.95;100359.69;5095128;28;20032;-71
2022/05/02 09:13:14;;;;;;;14.93;12.18;;;;;;;14.69;75.67;100356.06;5093777;28;20039;-72
2022/05/02 09:16:10;;;;;;;16.15;12.38;;;;;;;15.04;73.98;100361.38;5094932;28;20039;-71
2022/05/02 09:18:51;;;;;;;15.05;12.35;;;;;;;15.04;72.46;100361.38;5094914;28;20064;-72
2022/05/02 09:21:16;;;;;;;14.05;12.27;;;;;;;15.22;71.43;100363.53;5094620;28;20047;-72
2022/05/02 09:23:45;;;;;;;15.13;12.23;;;;;;;15.57;71.55;100365.06;5093320;28;20028;-71
2022/05/02 09:26:47;;;;;;;16.55;12.60;;;;;;;15.51;70.79;100359.69;5094647;28;20512;-72
2022/05/02 09:29:21;;;;;;;15.60;12.13;;;;;;;16.06;69.70;100358.56;5094592;28;20085;-72
2022/05/02 09:31:59;;;;;;;14.88;10.82;;;;;;;16.31;68.42;100357.97;5094351;28;20028;-71
2022/05/02 09:34:36;;;;;;;12.90;10.90;;;;;;;16.11;67.56;100345.34;5094527;28;20039;-71
2022/05/02 09:37:37;;;;;;;14.00;11.85;;;;;;;16.28;67.15;100349.25;5093416;28;20048;-71
2022/05/02 09:40:08;;;;;;;14.55;11.07;;;;;;;16.64;65.82;100341.78;5094479;28;20489;-72
2022/05/02 09:42:45;;;;;;;15.30;11.35;;;;;;;16.87;64.85;100347.53;5094202;28;20040;-71
2022/05/02 09:52:09;;;;;;;13.05;10.30;;;;;;;18.12;59.85;100337.91;5034386;28;20041;-71
2022/05/02 09:57:59;;;;;;;14.07;10.68;;;;;;;18.36;57.91;100330.03;5092130;28;20052;-72
2022/05/02 10:03:24;;;;;;;11.52;9.80;;;;;;;19.44;54.49;100322.16;5093808;28;20557;-71
2022/05/02 10:06:10;;;;;;;10.45;9.23;;;;;;;19.35;53.50;100320.81;5093702;28;20117;-71
2022/05/02 10:08:56;;;;;;;14.40;10.07;;;;;;;19.68;52.94;100311.44;5093937;28;20119;-71
2022/05/02 10:11:24;;;;;;;13.43;10.65;;;;;;;20.15;52.59;100312.34;5092577;28;20093;-71
2022/05/02 10:14:15;;;;;;;13.98;9.75;;;;;;;20.70;48.84;100309.28;5093694;28;20032;-72
2022/05/02 10:16:41;;;;;;;12.32;10.07;;;;;;;20.43;49.74;100306.22;5093976;28;20389;-72
2022/05/02 10:19:34;;;;;;;11.88;10.23;;;;;;;20.49;49.43;100313.44;5093532;28;20031;-72
2022/05/02 10:22:18;;;;;;;11.45;10.05;;;;;;;20.50;49.52;100312.38;5093287;28;20502;-72
2022/05/02 10:24:52;;;;;;;14.80;9.90;;;;;;;20.80;47.61;100303.25;5093541;28;20050;-71
2022/05/02 10:27:21;;;;;;;13.40;9.75;;;;;;;20.79;48.11;100299.72;5093824;28;20032;-72
2022/05/02 10:30:08;;;;;;;10.38;8.65;;;;;;;21.46;47.50;100295.63;5093759;28;20024;-72
2022/05/02 10:32:56;;;;;;;13.60;9.57;;;;;;;21.37;44.75;100290.59;5093333;28;20157;-71
2022/05/02 10:35:23;;;;;;;11.82;10.10;;;;;;;21.73;44.98;100293.94;5093712;28;20040;-72
2022/05/02 10:37:59;;;;;;;13.23;9.98;;;;;;;21.57;44.59;100287.41;5093316;28;20173;-71
2022/05/02 10:40:42;;;;;;;13.02;9.07;;;;;;;21.81;44.79;100282.69;5093602;28;20040;-72
2022/05/02 10:43:10;;;;;;;11.13;9.95;;;;;;;21.35;45.96;100281.06;5093908;28;20118;-71
2022/05/02 10:45:38;;;;;;;11.80;8.18;;;;;;;21.87;45.18;100272.75;5093040;28;20103;-72
2022/05/02 10:48:18;;;;;;;10.75;9.60;;;;;;;22.72;42.74;100279.69;5093244;28;20035;-72
2022/05/02 10:51:29;;;;;;;11.63;8.52;;;;;;;23.20;41.92;100268.03;5092980;28;20032;-72
2022/05/02 10:54:07;;;;;;;12.82;8.98;;;;;;;23.51;40.85;100262.91;5092935;28;20093;-73
2022/05/02 10:56:35;;;;;;;9.48;8.48;;;;;;;23.71;40.74;100271.28;5091600;28;20449;-72
2022/05/02 10:59:03;;;;;;;12.77;9.20;;;;;;;23.69;40.62;100259.03;5092922;28;20032;-72
2022/05/02 11:01:53;;;;;;;11.38;8.73;;;;;;;23.92;39.72;100266.00;5092833;28;20518;-72
2022/05/02 11:04:34;;;;;;;11.23;8.90;;;;;;;24.05;38.88;100258.19;5091627;28;20059;-73
2022/05/02 11:07:22;;;;;;;11.77;8.05;;;;;;;23.63;38.84;100254.63;5092754;28;20516;-72
2022/05/02 11:09:54;;;;;;;11.05;8.57;;;;;;;23.78;39.22;100252.84;5092920;28;20042;-73
2022/05/02 11:12:22;;;;;;;12.38;9.05;;;;;;;23.41;39.56;100250.06;5092381;28;20024;-72
2022/05/02 11:14:48;;;;;;;12.75;9.45;;;;;;;23.36;39.88;100247.28;5092528;28;20034;-72
2022/05/02 11:17:32;;;;;;;15.75;9.85;;;;;;;23.47;41.51;100240.88;5092542;28;20119;-72
2022/05/02 11:20:42;;;;;;;11.32;10.13;;;;;;;24.00;39.57;100250.03;5092514;28;20051;-72
2022/05/02 11:23:24;;;;;;;11.68;9.77;;;;;;;24.26;39.10;100228.41;5092216;28;20081;-72
2022/05/02 11:26:07;;;;;;;11.98;8.82;;;;;;;24.25;39.43;100233.00;5092667;28;20392;-72
2022/05/02 11:29:13;;;;;;;9.55;8.55;;;;;;;24.36;38.39;100229.31;5092524;28;20043;-72
2022/05/02 11:32:03;;;;;;;14.23;10.05;;;;;;;24.40;38.25;100224.16;5071082;28;20067;-72
2022/05/02 11:34:41;;;;;;;10.75;8.95;;;;;;;24.26;38.59;100217.53;5092288;28;20493;-71
2022/05/02 11:37:15;;;;;;;11.85;8.90;;;;;;;24.12;37.90;100214.44;5091038;28;20413;-71
2022/05/02 11:40:10;;;;;;;12.40;8.30;;;;;;;24.61;38.20;100219.63;5092144;28;20155;-72
2022/05/02 11:42:45;;;;;;;11.93;8.60;;;;;;;24.66;38.48;100210.66;5089522;27;20512;-72
2022/05/02 11:45:13;;;;;;;9.45;7.85;;;;;;;25.66;37.56;100206.47;5092140;28;20032;-72
2022/05/02 11:48:06;;;;;;;9.52;7.20;;;;;;;25.71;34.64;100208.38;5091969;28;20110;-72
2022/05/02 11:50:41;;;;;;;8.77;7.88;;;;;;;26.00;34.35;100213.25;5092099;28;20439;-72
2022/05/02 11:53:09;;;;;;;10.32;7.53;;;;;;;25.91;33.43;100216.56;5091694;28;20040;-72
2022/05/02 11:55:36;;;;;;;10.48;7.88;;;;;;;25.74;34.15;100207.03;5091995;28;20706;-72
2022/05/02 11:58:07;;;;;;;9.23;8.23;;;;;;;26.23;35.49;100207.19;5091902;28;20040;-72
2022/05/02 12:00:38;;;;;;;10.98;8.38;;;;;;;26.14;34.38;100212.41;5090529;28;20431;-71
2022/05/02 12:03:20;;;;;;;11.38;8.73;;;;;;;25.65;34.96;100215.72;5091527;28;20040;-72
2022/05/02 12:05:52;;;;;;;10.80;8.18;;;;;;;24.97;35.65;100206.91;5091761;28;20065;-72
2022/05/02 12:08:32;;;;;;;11.15;7.43;;;;;;;24.38;38.67;100209.16;5091781;28;20039;-72
2022/05/02 12:11:06;;;;;;;9.73;7.78;;;;;;;25.14;35.72;100206.72;5091688;28;20070;-72
2022/05/02 12:13:45;;;;;;;9.05;8.07;;;;;;;24.45;36.32;100210.59;5091468;28;20063;-73
2022/05/02 12:16:16;;;;;;;9.50;8.18;;;;;;;25.30;35.28;100212.97;5091675;28;20046;-73
2022/05/02 12:18:49;;;;;;;12.32;9.55;;;;;;;25.21;35.82;100209.16;5091670;28;20115;-75
2022/05/02 12:21:31;;;;;;;13.52;8.20;;;;;;;25.37;35.17;100198.03;5091557;28;20501;-73
2022/05/02 12:23:59;;;;;;;8.50;7.43;;;;;;;24.37;36.71;100205.63;5091516;28;20398;-74
2022/05/02 12:26:25;;;;;;;10.48;7.82;;;;;;;24.53;36.05;100195.63;5090340;28;20089;-73
2022/05/02 12:28:53;;;;;;;10.90;8.20;;;;;;;24.86;36.49;100184.28;5091554;28;20036;-73
2022/05/02 12:31:35;;;;;;;12.52;9.10;;;;;;;24.57;37.60;100189.38;5091374;28;20032;-73
2022/05/02 12:34:11;;;;;;;9.38;7.50;;;;;;;25.50;34.45;100188.47;5091543;28;20051;-72
2022/05/02 12:36:46;;;;;;;13.77;8.13;;;;;;;25.24;35.74;100181.38;5091295;28;20036;-73
2022/05/02 12:39:19;;;;;;;10.98;7.70;;;;;;;25.98;34.71;100180.78;5091375;28;20485;-73
2022/05/02 12:41:47;;;;;;;9.18;7.18;;;;;;;25.95;36.17;100184.91;5091096;28;20086;-73
2022/05/02 12:44:14;;;;;;;9.63;6.80;;;;;;;26.42;33.96;100177.41;5095028;28;20038;-74
2022/05/02 12:46:44;;;;;;;9.73;7.28;;;;;;;26.22;33.17;100179.09;5094199;28;20107;-72
2022/05/02 12:49:24;;;;;;;11.77;7.25;;;;;;;25.59;33.86;100180.56;5095815;28;20032;-74
2022/05/02 12:51:55;;;;;;;9.25;6.55;;;;;;;25.34;34.86;100167.75;5095338;28;20024;-73
2022/05/02 12:54:22;;;;;;;10.13;8.30;;;;;;;23.62;37.23;100174.16;5095363;28;20126;-73
2022/05/02 13:02:44;;;;;;;10.50;7.35;;;;;;;23.49;38.25;100170.75;5094838;28;20040;-74
2022/05/02 13:05:13;;;;;;;10.80;7.50;;;;;;;23.36;38.30;100171.19;5095032;28;20036;-74
2022/05/02 13:07:48;;;;;;;10.77;7.72;;;;;;;23.23;38.67;100161.59;5095109;28;20027;-72
2022/05/02 13:10:17;;;;;;;8.98;6.93;;;;;;;23.15;39.14;100166.69;5095034;28;20082;-74
2022/05/02 13:13:06;;;;;;;8.68;7.78;;;;;;;23.10;39.31;100161.19;5093360;28;20052;-74
2022/05/02 13:15:52;;;;;;;9.15;8.25;;;;;;;22.63;40.04;100153.63;5094780;28;20055;-72
2022/05/02 13:18:20;;;;;;;10.75;7.80;;;;;;;23.07;39.68;100156.25;5094864;28;20144;-72
2022/05/02 13:21:03;;;;;;;11.52;7.45;;;;;;;23.71;38.63;100148.09;5094841;28;20055;-73
2022/05/02 13:23:44;;;;;;;11.65;8.27;;;;;;;23.70;39.03;100144.56;5094541;28;20496;-73
2022/05/02 13:26:29;;;;;;;9.60;7.40;;;;;;;23.99;37.48;100144.19;5094748;28;20051;-72
2022/05/02 13:29:15;;;;;;;10.13;8.45;;;;;;;23.74;37.93;100129.38;5094734;28;20460;-73
2022/05/02 13:32:03;;;;;;;9.98;7.57;;;;;;;23.91;37.11;100133.81;5093174;28;20032;-73
2022/05/02 13:34:29;;;;;;;10.60;7.20;;;;;;;23.64;39.80;100123.03;5094495;28;20044;-72
2022/05/02 13:37:33;;;;;;;10.10;7.50;;;;;;;23.63;37.36;100122.22;5094493;28;20211;-72
2022/05/02 13:40:01;;;;;;;10.70;7.93;;;;;;;23.60;38.17;100127.31;5051832;28;20033;-72
2022/05/02 13:42:29;;;;;;;11.07;7.05;;;;;;;23.36;37.92;100122.28;5086797;28;20054;-72
2022/05/02 13:45:02;;;;;;;8.23;6.55;;;;;;;23.28;37.21;100125.50;5094198;28;20047;-72
2022/05/02 13:47:42;;;;;;;8.13;6.30;;;;;;;23.04;36.96;100129.63;5094380;28;20046;-71
2022/05/02 13:50:12;;;;;;;8.75;6.53;;;;;;;22.78;37.36;100121.19;5093274;28;20411;-72
2022/05/02 13:52:50;;;;;;;9.48;7.68;;;;;;;21.71;38.90;100128.00;5093914;28;20032;-74
2022/05/02 13:55:24;;;;;;;8.70;6.45;;;;;;;22.01;39.25;100116.75;5093837;28;20066;-73
2022/05/02 13:58:00;;;;;;;11.40;6.40;;;;;;;22.00;40.10;100115.13;5094132;28;20055;-73
2022/05/02 14:03:40;;;;;;;9.05;6.53;;;;;;;22.03;40.30;100113.78;5093703;28;20028;-75
2022/05/02 14:06:12;;;;;;;10.63;6.80;;;;;;;21.70;40.60;100120.94;5093936;28;20051;-74
2022/05/02 14:08:39;;;;;;;8.13;6.38;;;;;;;21.93;40.55;100118.03;5093949;28;20093;-74
2022/05/02 14:11:05;;;;;;;10.13;7.50;;;;;;;21.30;40.81;100104.91;5093853;28;20082;-74
2022/05/02 14:13:31;;;;;;;9.17;6.97;;;;;;;21.57;41.16;100115.88;5093822;28;20032;-74
2022/05/02 14:16:08;;;;;;;8.43;7.05;;;;;;;21.78;39.49;100106.97;5093637;28;20143;-73
2022/05/02 14:18:53;;;;;;;9.70;7.10;;;;;;;21.27;43.79;100105.38;5094040;28;20378;-75
2022/05/02 14:21:20;;;;;;;8.45;6.80;;;;;;;21.45;41.26;100105.13;5093725;28;20109;-74
2022/05/02 14:23:53;;;;;;;10.18;6.53;;;;;;;21.65;40.26;100104.63;5093524;28;20468;-74
2022/05/02 14:26:19;;;;;;;9.25;7.00;;;;;;;21.71;40.35;100106.31;5093515;28;20055;-74
2022/05/02 14:28:48;;;;;;;8.25;6.82;;;;;;;21.92;39.29;100097.41;5093516;28;20028;-73
2022/05/02 14:31:14;;;;;;;7.78;6.40;;;;;;;21.68;40.72;100106.81;5092229;28;20059;-73
2022/05/02 14:33:40;;;;;;;10.20;6.30;;;;;;;21.35;40.27;100096.84;5093321;28;20032;-73
2022/05/02 14:36:10;;;;;;;7.57;6.72;;;;;;;21.51;39.95;100098.72;5093131;28;20032;-73
2022/05/02 14:38:37;;;;;;;9.52;7.28;;;;;;;21.30;40.83;100092.16;5093576;28;20623;-73
2022/05/02 14:41:06;;;;;;;7.68;6.90;;;;;;;20.78;41.59;100094.25;5093348;28;20020;-73
2022/05/02 14:43:32;;;;;;;12.18;7.45;;;;;;;20.75;41.91;100092.88;5091599;28;20043;-72
2022/05/02 14:45:58;;;;;;;11.27;7.07;;;;;;;21.09;41.86;100090.19;5092972;28;20373;-72
2022/05/02 14:48:24;;;;;;;11.98;7.55;;;;;;;20.74;42.02;100090.41;5074954;28;20047;-73
2022/05/02 14:50:52;;;;;;;8.48;6.57;;;;;;;20.90;43.11;100094.19;5091528;28;20614;-73
2022/05/02 14:53:21;;;;;;;;;;;;;;;20.97;42.09;100089.44;5093047;28;20069;-74
2022/05/02 14:55:58;;;;;;;9.15;7.20;;;;;;;21.20;41.58;100078.47;5091421;28;20320;-73
2022/05/02 14:58:26;;;;;;;9.40;7.40;;;;;;;20.66;42.77;100064.53;5092653;28;20081;-73
2022/05/02 15:00:57;;;;;;;9.50;7.07;;;;;;;20.98;42.60;100072.94;5091665;28;20481;-74
2022/05/02 15:03:31;;;;;;;10.23;6.97;;;;;;;21.21;42.46;100071.16;5092495;28;20064;-75
2022/05/02 15:06:04;;;;;;;10.75;7.28;;;;;;;21.39;41.20;100074.44;5091830;28;20043;-72
2022/05/02 15:08:51;;;;;;;9.63;7.20;;;;;;;21.44;40.52;100073.69;5092751;28;20512;-72
2022/05/02 15:11:35;;;;;;;8.10;6.45;;;;;;;21.58;40.88;100071.44;5091434;28;20573;-73
2022/05/02 15:14:24;;;;;;;12.45;7.45;;;;;;;21.51;41.28;100070.78;5092341;28;20568;-72
2022/05/02 15:17:17;;;;;;;9.75;7.55;;;;;;;21.32;42.00;100071.09;5091239;28;20078;-73
2022/05/02 15:20:13;;;;;;;9.27;7.07;;;;;;;21.43;41.70;100073.94;5092421;28;20055;-73
2022/05/02 15:22:46;;;;;;;9.48;6.80;;;;;;;21.38;41.14;100067.38;5092095;28;20642;-73
2022/05/02 15:25:12;;;;;;;9.18;6.97;;;;;;;21.18;41.84;100068.91;5091217;28;20400;-72
2022/05/02 15:39:18;;;;;;;7.50;6.50;;;;;;;20.68;42.43;100069.72;5091757;28;20469;-73
2022/05/02 15:41:43;;;;;;;;;;;;;;;20.49;42.85;100071.81;5092144;28;20052;-72
2022/05/02 15:44:11;;;;;;;11.05;6.18;;;;;;;20.28;45.46;100060.59;5090388;28;19973;-72
2022/05/02 15:47:20;;;;;;;7.60;6.57;;;;;;;20.09;44.26;100064.53;5091757;28;20044;-72
2022/05/02 15:49:58;;;;;;;10.00;7.82;;;;;;;19.94;44.83;100058.81;5090143;28;20048;-73
2022/05/02 15:52:26;;;;;;;10.45;7.20;;;;;;;19.81;45.94;100062.59;5091548;28;20063;-73
2022/05/02 15:55:00;;;;;;;10.02;7.75;;;;;;;19.85;45.66;100057.53;5090399;28;20032;-73
2022/05/02 15:57:30;;;;;;;13.98;7.63;;;;;;;19.91;45.07;100056.59;5091732;28;20044;-72
2022/05/02 16:00:21;;;;;;;11.68;7.93;;;;;;;19.82;45.38;100058.00;5091684;28;20412;-74
2022/05/02 16:03:06;;;;;;;9.35;7.47;;;;;;;19.86;45.07;100057.31;5091558;28;20233;-73
2022/05/02 16:05:33;;;;;;;8.57;7.47;;;;;;;19.74;44.44;100056.50;5090236;28;20154;-73
2022/05/02 16:10:46;;;;;;;13.05;7.30;;;;;;;19.62;44.66;100051.09;5091578;28;20040;-73
2022/05/02 16:13:15;;;;;;;7.35;6.63;;;;;;;19.54;44.95;100040.63;5091270;28;20071;-73
2022/05/02 16:15:46;;;;;;;9.82;6.75;;;;;;;19.45;45.85;100051.00;5091462;28;20409;-73
2022/05/02 16:18:13;;;;;;;11.60;7.15;;;;;;;19.34;46.35;100051.00;5091416;28;20060;-76
2022/05/02 16:20:41;;;;;;;9.38;6.85;;;;;;;19.12;46.15;100040.78;5091633;28;20032;-72
2022/05/02 16:23:10;;;;;;;8.85;6.30;;;;;;;19.28;46.73;100046.53;5091159;28;20093;-72
2022/05/02 16:25:39;;;;;;;8.00;6.43;;;;;;;19.21;46.95;100052.06;5091454;28;20051;-73
2022/05/02 16:28:19;;;;;;;10.80;6.68;;;;;;;19.07;47.08;100046.06;5091358;28;20059;-73
2022/05/02 16:30:47;;;;;;;8.38;6.88;;;;;;;18.95;47.43;100050.63;5091303;28;20047;-73
2022/05/02 16:33:25;;;;;;;8.45;6.97;;;;;;;18.93;47.33;100039.25;5091183;28;20032;-73
2022/05/02 16:35:53;;;;;;;10.07;6.13;;;;;;;18.85;47.78;100042.28;5090227;28;20548;-73
2022/05/02 16:38:39;;;;;;;10.65;7.50;;;;;;;18.84;47.70;100043.31;5091462;28;20024;-73
2022/05/02 16:41:18;;;;;;;8.88;6.75;;;;;;;18.75;48.00;100042.84;5091393;28;20038;-73
2022/05/02 16:43:48;;;;;;;8.48;6.60;;;;;;;18.83;48.10;100038.97;5090999;28;20535;-72
2022/05/02 16:46:28;;;;;;;8.20;6.85;;;;;;;18.82;48.92;100042.75;5091218;28;20476;-73
2022/05/02 16:48:55;;;;;;;8.20;6.85;;;;;;;18.68;48.34;100032.16;5091276;28;20074;-73
2022/05/02 16:51:22;;;;;;;;;;;;;;;18.71;48.23;100038.94;5091643;28;20103;-73
2022/05/02 16:53:56;;;;;;;10.07;7.18;;;;;;;18.75;47.81;100040.16;5090977;28;19985;-73
2022/05/02 16:56:24;;;;;;;9.05;6.55;;;;;;;18.72;47.90;100029.81;5090991;28;20442;-72
2022/05/02 16:58:51;;;;;;;9.18;7.22;;;;;;;18.64;48.20;100046.28;5091058;28;20115;-73
2022/05/02 17:01:18;;;;;;;8.65;7.18;;;;;;;18.63;48.37;100037.38;5090944;28;20074;-73
2022/05/02 17:04:04;;;;;;;8.80;7.53;;;;;;;18.75;48.45;100036.63;5090655;28;20046;-72
2022/05/02 17:06:31;;;;;;;8.93;6.88;;;;;;;18.78;48.77;100038.84;5090858;28;20439;-72